EGPH

Edinburgh Airport

Edinburgh, United Kingdom
METAR EGPH 122150Z 14009KT CAVOK 03/M01 Q1017
Observed Flight Rules
Dec-12 @ 21:50 UTC (40 minutes ago) Visual Flight Rules
Wind Visibility Clouds
140° at 9 knots 10,000+ meters
  • Clear skies
Temperatures Readings
Current 3°C / 37°F
Dewpoint -1°C / 30°F
Humidity 75%
Altimeter 30.03" Hg
Pressure 1017 hPa
Elevation 41
METAR EGPH 122150Z 14009KT CAVOK 03/M01 Q1017
Observed Flight Rules
Dec-12 @ 21:50 UTC
(40 minutes ago)
VFR
Wind Visibility
140° at 9 knots 10,000+ meters
Clouds
  • Clear skies
Temperature Dewpoint
3°C / 37°F -1°C / 30°F
Humidity Altimeter Pressure
75% 30.03" Hg 1017 hPa